| time (UTC) | temp C | wind direction | speed KPH | gust KPH | rain 1hr cm | rain 24hr cm | rain mn cm | humidity % | barometer mb |
| 20260506160104 | 20 | 0 | 0.0 | 8.0 | 0.00 | 0.00 | 0.00 | 42 | 1016.9 |
| 20260506154554 | 18 | 0 | 0.0 | 3.2 | 0.00 | 0.00 | 0.00 | 47 | 1016.8 |
| 20260506153055 | 17 | 0 | 0.0 | 4.8 | 0.00 | 0.00 | 0.00 | 50 | 1016.8 |
| 20260506151555 | 16 | 0 | 0.0 | 3.2 | 0.00 | 0.00 | 0.00 | 54 | 1016.8 |
| 20260506150052 | 15 | 0 | 0.0 | 4.8 | 0.00 | 0.00 | 0.00 | 58 | 1016.9 |
| 20260506144548 | 14 | 0 | 0.0 | 6.4 | 0.00 | 0.00 | 0.00 | 61 | 1016.7 |
| 20260506143056 | 13 | 0 | 0.0 | 6.4 | 0.00 | 0.00 | 0.00 | 64 | 1016.8 |
| 20260506141604 | 12 | 0 | 0.0 | 6.4 | 0.00 | 0.00 | 0.00 | 68 | 1016.8 |
| 20260506140053 | 12 | 0 | 0.0 | 3.2 | 0.00 | 0.00 | 0.00 | 71 | 1016.8 |
| 20260506134545 | 11 | 0 | 0.0 | 0.0 | 0.00 | 0.00 | 0.00 | 71 | 1016.7 |
| 20260506133048 | 11 | 0 | 0.0 | 0.0 | 0.00 | 0.00 | 0.00 | 71 | 1016.6 |
| 20260506131548 | 11 | 0 | 0.0 | 0.0 | 0.00 | 0.00 | 0.00 | 71 | 1016.4 |
| 20260506130047 | 11 | 0 | 0.0 | 0.0 | 0.00 | 0.00 | 0.00 | 71 | 1016.2 |
| 20260506124547 | 11 | 0 | 0.0 | 0.0 | 0.00 | 0.00 | 0.00 | 70 | 1016.0 |
| 20260506123046 | 11 | 0 | 0.0 | 0.0 | 0.00 | 0.00 | 0.00 | 69 | 1015.9 |
| 20260506121559 | 12 | 0 | 0.0 | 0.0 | 0.00 | 0.00 | 0.00 | 66 | 1015.9 |
| 20260506120115 | 12 | 0 | 0.0 | 0.0 | 0.00 | 0.00 | 0.00 | 66 | 1015.7 |
| 20260506114547 | 12 | 0 | 0.0 | 0.0 | 0.00 | 0.03 | 0.00 | 65 | 1015.6 |
| 20260506113047 | 12 | 0 | 0.0 | 0.0 | 0.00 | 0.03 | 0.00 | 65 | 1015.5 |
| 20260506111552 | 12 | 0 | 0.0 | 0.0 | 0.00 | 0.03 | 0.00 | 64 | 1015.4 |
| 20260506110054 | 12 | 0 | 0.0 | 1.6 | 0.00 | 0.03 | 0.00 | 63 | 1015.2 |
| 20260506104548 | 12 | 0 | 0.0 | 4.8 | 0.00 | 0.08 | 0.00 | 62 | 1015.2 |
| 20260506103049 | 13 | 0 | 0.0 | 6.4 | 0.00 | 0.08 | 0.00 | 61 | 1015.1 |
| 20260506101548 | 13 | 0 | 0.0 | 0.0 | 0.00 | 0.08 | 0.00 | 60 | 1015.0 |
| 20260506100053 | 13 | 0 | 0.0 | 0.0 | 0.00 | 0.08 | 0.00 | 60 | 1014.8 |
| 20260506094550 | 13 | 0 | 0.0 | 4.8 | 0.00 | 0.10 | 0.00 | 58 | 1014.9 |
| 20260506093051 | 13 | 0 | 0.0 | 0.0 | 0.00 | 0.10 | 0.00 | 56 | 1014.9 |
| 20260506091547 | 14 | 0 | 0.0 | 0.0 | 0.00 | 0.10 | 0.00 | 54 | 1014.9 |
| 20260506090047 | 14 | 0 | 0.0 | 0.0 | 0.00 | 0.10 | 0.00 | 52 | 1014.9 |
| 20260506084546 | 14 | 0 | 0.0 | 0.0 | 0.00 | 0.20 | 0.00 | 51 | 1014.9 |
| 20260506083048 | 15 | 0 | 0.0 | 0.0 | 0.00 | 0.20 | 0.00 | 50 | 1015.0 |
| 20260506081550 | 15 | 0 | 0.0 | 0.0 | 0.00 | 0.20 | 0.00 | 48 | 1015.0 |
| 20260506073053 | 16 | 0 | 0.0 | 1.6 | 0.00 | 0.33 | 0.00 | 46 | 1015.1 |
| 20260506071553 | 16 | 0 | 0.0 | 1.6 | 0.00 | 0.33 | 0.00 | 46 | 1014.9 |
| 20260506070105 | 16 | 0 | 0.0 | 1.6 | 0.00 | 0.33 | 0.00 | 46 | 1014.9 |
| 20260506061547 | 17 | 0 | 0.0 | 1.6 | 0.00 | 0.48 | 0.33 | 51 | 1014.6 |
| 20260506044554 | 18 | 344 | 3.2 | 12.9 | 0.00 | 0.61 | 0.33 | 37 | 1013.9 |
| 20260506043047 | 19 | 277 | 0.0 | 14.5 | 0.00 | 0.61 | 0.33 | 38 | 1013.8 |
| 20260506041553 | 19 | 284 | 1.6 | 19.3 | 0.00 | 0.61 | 0.33 | 37 | 1013.8 |
| 20260506040053 | 19 | 298 | 8.0 | 17.7 | 0.00 | 0.61 | 0.33 | 43 | 1013.5 |
| 20260506034547 | 19 | 266 | 8.0 | 22.5 | 0.00 | 0.64 | 0.33 | 43 | 1013.1 |
| 20260506033045 | 20 | 0 | 3.2 | 16.1 | 0.00 | 0.64 | 0.33 | 42 | 1012.9 |
| 20260506031557 | 20 | 243 | 3.2 | 11.3 | 0.00 | 0.64 | 0.33 | 37 | 1012.6 |
| 20260506030108 | 20 | 270 | 3.2 | 14.5 | 0.00 | 0.64 | 0.33 | 36 | 1012.4 |
| 20260506024546 | 20 | 273 | 1.6 | 12.9 | 0.00 | 0.64 | 0.33 | 35 | 1012.2 |
| 20260506023047 | 20 | 259 | 4.8 | 14.5 | 0.00 | 0.64 | 0.33 | 34 | 1012.0 |
| 20260506021548 | 21 | 274 | 1.6 | 14.5 | 0.00 | 0.64 | 0.33 | 33 | 1011.7 |
| 20260506020046 | 21 | 301 | 9.7 | 20.9 | 0.00 | 0.64 | 0.33 | 31 | 1011.4 |
| 20260506014546 | 22 | 244 | 8.0 | 24.1 | 0.00 | 0.66 | 0.33 | 28 | 1011.3 |
| 20260506013049 | 22 | 242 | 4.8 | 27.4 | 0.00 | 0.66 | 0.33 | 27 | 1011.3 |
| 20260506011556 | 22 | 232 | 8.0 | 27.4 | 0.00 | 0.66 | 0.33 | 29 | 1011.1 |
| 20260506010054 | 22 | 242 | 9.7 | 29.0 | 0.00 | 0.66 | 0.33 | 30 | 1010.9 |
| 20260506004621 | 23 | 268 | 12.9 | 27.4 | 0.00 | 0.66 | 0.33 | 29 | 1010.8 |
| 20260506003051 | 24 | 291 | 12.9 | 30.6 | 0.00 | 0.66 | 0.33 | 27 | 1010.7 |
| 20260506001550 | 24 | 219 | 9.7 | 29.0 | 0.00 | 0.66 | 0.33 | 25 | 1010.5 |
| 20260506000054 | 25 | 261 | 6.4 | 32.2 | 0.00 | 0.66 | 0.33 | 26 | 1010.4 |
| 20260505234610 | 25 | 248 | 6.4 | 19.3 | 0.00 | 0.66 | 0.33 | 26 | 1010.3 |
| 20260505233046 | 24 | 190 | 3.2 | 22.5 | 0.00 | 0.66 | 0.33 | 27 | 1010.1 |
| 20260505231550 | 25 | 246 | 8.0 | 27.4 | 0.00 | 0.66 | 0.33 | 26 | 1010.2 |
| 20260505230050 | 24 | 0 | 6.4 | 17.7 | 0.00 | 0.66 | 0.33 | 29 | 1010.3 |
| 20260505224549 | 24 | 272 | 1.6 | 20.9 | 0.00 | 0.66 | 0.33 | 29 | 1010.3 |
| 20260505223101 | 24 | 225 | 1.6 | 25.7 | 0.00 | 0.66 | 0.33 | 28 | 1010.5 |
| 20260505221559 | 25 | 247 | 6.4 | 24.1 | 0.00 | 0.66 | 0.33 | 28 | 1010.6 |
| 20260505220124 | 25 | 236 | 11.3 | 27.4 | 0.00 | 0.66 | 0.33 | 28 | 1010.9 |
| 20260505214608 | 25 | 196 | 4.8 | 16.1 | 0.00 | 0.66 | 0.33 | 30 | 1011.1 |
| 20260505213055 | 25 | 248 | 4.8 | 19.3 | 0.00 | 0.66 | 0.33 | 29 | 1011.2 |
| 20260505211608 | 25 | 246 | 4.8 | 22.5 | 0.00 | 0.66 | 0.33 | 35 | 1011.3 |
| 20260505210052 | 25 | 276 | 6.4 | 27.4 | 0.00 | 0.66 | 0.33 | 30 | 1011.4 |
| 20260505204550 | 25 | 177 | 12.9 | 33.8 | 0.00 | 0.66 | 0.33 | 29 | 1011.3 |
| 20260505203046 | 25 | 268 | 8.0 | 30.6 | 0.00 | 0.66 | 0.33 | 31 | 1011.5 |
| 20260505201601 | 25 | 0 | 6.4 | 25.7 | 0.00 | 0.66 | 0.33 | 32 | 1011.7 |
| 20260505200100 | 25 | 207 | 16.1 | 30.6 | 0.00 | 0.66 | 0.33 | 33 | 1011.8 |
| 20260505194607 | 23 | 283 | 1.6 | 25.7 | 0.00 | 0.66 | 0.33 | 42 | 1012.0 |
| 20260505193047 | 24 | 199 | 14.5 | 37.0 | 0.00 | 0.66 | 0.33 | 38 | 1012.1 |
| 20260505191547 | 23 | 0 | 9.7 | 24.1 | 0.00 | 0.66 | 0.33 | 44 | 1012.2 |
| 20260505190049 | 22 | 278 | 3.2 | 14.5 | 0.00 | 0.66 | 0.33 | 48 | 1012.4 |
| 20260505184549 | 21 | 0 | 1.6 | 9.7 | 0.00 | 0.66 | 0.33 | 51 | 1012.5 |
| 20260505183051 | 21 | 0 | 0.0 | 4.8 | 0.00 | 0.66 | 0.33 | 53 | 1012.8 |
| 20260505181547 | 21 | 0 | 0.0 | 9.7 | 0.00 | 0.66 | 0.33 | 52 | 1012.9 |
| 20260505180046 | 21 | 180 | 4.8 | 16.1 | 0.00 | 0.66 | 0.33 | 53 | 1013.0 |
| 20260505174550 | 20 | 0 | 0.0 | 6.4 | 0.00 | 0.66 | 0.33 | 52 | 1013.2 |
| 20260505173050 | 20 | 257 | 3.2 | 14.5 | 0.00 | 0.66 | 0.33 | 57 | 1013.4 |
| 20260505171546 | 20 | 0 | 3.2 | 12.9 | 0.00 | 0.66 | 0.33 | 59 | 1013.2 |
| 20260505170048 | 19 | 0 | 0.0 | 0.0 | 0.00 | 0.66 | 0.33 | 63 | 1013.3 |
| 20260505164553 | 18 | 0 | 0.0 | 0.0 | 0.00 | 0.66 | 0.33 | 64 | 1013.3 |
| 20260505163049 | 18 | 0 | 0.0 | 1.6 | 0.00 | 0.66 | 0.33 | 67 | 1013.2 |
| 20260505161548 | 17 | 0 | 0.0 | 3.2 | 0.00 | 0.66 | 0.33 | 70 | 1013.3 |